Pagina principale
METAR-TAF:

METAR-TAF

Aeroporti :

Lugano, Svizzera

Aeroporto di Lugano-Agno

latitudine: 46-00N, longitudine: 008-58E, altezza: 273 m

Osservazione

Il bollettino è stato emesso 44 minuti fa, alle 11:20 UTC
Vento 16 kt da nord
Temperature 15°C
Umidità 39%
Pressione 1012 hPa
Visibilità 10 km o più
nessuna nube inferiore a 1500 m e nessun cumulonembo

METAR: LSZA 191120Z 01016KT CAVOK 15/01 Q1012 NOSIG

Ora: 13:04 (12:04 UTC)

Previsione

Il bollettino è stato emesso 39 minuti fa, alle 11:25 UTC
Previsione valida dal 19 alle 12 UTC al 19 alle 21 UTC
Vento 3 kt da direzioni variabili
Visibilità 10 km o più
nessuna nube inferiore a 1500 m e nessun cumulonembo
Temporaneamente
dal 19 alle 12 UTC al 19 alle 19 UTC
Vento 15 kt da nord con raffiche fino a 28 kt

TAF: LSZA 191125Z 1912/1921 VRB03KT CAVOK TEMPO 1912/1919 01015G28KT

Osservazioni e previsioni meteorologiche di più di 4000 aeroporti (messaggi METAR e TAF).

Le stazioni disponibili sono rappresentate dai dischi gialli e rossi sulla carta.

Puntare il mouse per vedere il nome della stazione.

Clicca sopra per visualizzare le osservazioni e previsioni meteorologiche.

Per cambiare la mappa : fare clic sui pulsanti verdi con una croce nera per ingrandire, il pulsante verde con un trattino per diminuire, o sulla freccia verde per le mappe adiacenti.


METAR-TAF: